createdAt,value
2023-01-05T00:01:46.574Z,3.85
2023-01-05T00:04:13.796Z,3.70
2023-01-05T00:06:41.227Z,3.65
2023-01-05T00:09:11.241Z,3.05
2023-01-05T00:11:56.669Z,3.20
2023-01-05T00:14:45.442Z,3.00
2023-01-05T00:17:33.674Z,3.00
2023-01-05T00:20:19.436Z,2.78
2023-01-05T00:22:53.974Z,3.00
2023-01-05T00:25:25.957Z,2.50
2023-01-05T00:27:54.035Z,2.25
2023-01-05T00:30:23.443Z,2.40
2023-01-05T00:32:50.737Z,3.20
2023-01-05T00:35:18.246Z,2.30
2023-01-05T00:37:45.654Z,2.42
2023-01-05T00:40:15.363Z,2.08
2023-01-05T00:45:11.785Z,2.08
2023-01-05T00:47:39.047Z,2.67
2023-01-05T00:50:06.761Z,1.90
2023-01-05T00:52:33.848Z,2.28
2023-01-05T00:55:00.721Z,2.13
2023-01-05T00:57:27.793Z,3.00
2023-01-05T00:59:54.735Z,2.22
2023-01-05T01:02:21.720Z,2.47
2023-01-05T01:04:48.916Z,2.60
2023-01-05T01:07:15.872Z,1.85
2023-01-05T01:09:42.782Z,2.47
2023-01-05T01:12:09.970Z,2.40
2023-01-05T01:14:37.481Z,2.60
2023-01-05T01:17:04.641Z,2.13
2023-01-05T01:19:31.661Z,2.50
2023-01-05T01:21:58.531Z,2.15
2023-01-05T01:24:30.108Z,2.30
2023-01-05T01:26:57.201Z,2.55
2023-01-05T01:29:25.188Z,2.25
2023-01-05T01:31:53.616Z,2.42
2023-01-05T01:34:21.088Z,2.20
2023-01-05T01:36:48.041Z,2.20
2023-01-05T01:39:15.015Z,2.63
2023-01-05T01:41:42.101Z,2.03
2023-01-05T01:44:54.116Z,2.08
2023-01-05T01:47:29.839Z,2.42
2023-01-05T01:49:59.112Z,2.70
2023-01-05T01:52:28.211Z,2.50
2023-01-05T01:54:55.526Z,2.20
2023-01-05T01:57:23.155Z,2.17
2023-01-05T01:59:50.560Z,2.50
2023-01-05T02:02:17.619Z,1.90
2023-01-05T02:04:45.226Z,2.72
2023-01-05T02:07:13.980Z,2.28
2023-01-05T02:09:41.055Z,2.60
2023-01-05T02:12:24.525Z,2.35
2023-01-05T02:15:35.319Z,2.55
2023-01-05T02:18:44.726Z,2.40
2023-01-05T02:21:35.243Z,2.03
2023-01-05T02:24:40.834Z,2.40
2023-01-05T02:27:23.001Z,2.05
2023-01-05T02:29:49.902Z,2.90
2023-01-05T02:35:26.391Z,2.53
2023-01-05T02:37:56.088Z,2.05
2023-01-05T02:42:56.014Z,2.60
2023-01-05T02:45:24.407Z,2.53
2023-01-05T02:47:52.327Z,2.33
2023-01-05T02:50:30.343Z,2.13
2023-01-05T02:53:07.655Z,2.53
2023-01-05T02:55:49.256Z,2.30
2023-01-05T02:58:24.174Z,2.22
2023-01-05T03:00:54.655Z,2.65
2023-01-05T03:03:32.396Z,2.53
2023-01-05T03:06:07.048Z,2.08
2023-01-05T03:08:38.788Z,2.85
2023-01-05T03:11:28.875Z,2.10
2023-01-05T03:14:05.848Z,2.67
2023-01-05T03:16:35.977Z,2.70
2023-01-05T03:22:12.212Z,2.13
2023-01-05T03:24:59.001Z,2.60
2023-01-05T03:27:44.804Z,2.03
2023-01-05T03:30:30.671Z,2.30
2023-01-05T03:33:25.967Z,2.92
2023-01-05T03:35:56.586Z,2.67
2023-01-05T03:38:35.739Z,2.90
2023-01-05T03:41:05.317Z,2.30
2023-01-05T03:43:36.731Z,2.42
2023-01-05T03:46:19.491Z,1.98
2023-01-05T03:48:46.719Z,2.22
2023-01-05T03:51:16.319Z,2.80
2023-01-05T03:53:43.359Z,2.70
2023-01-05T03:56:10.444Z,2.13
2023-01-05T03:58:37.425Z,2.78
2023-01-05T04:01:05.089Z,2.47
2023-01-05T04:03:32.581Z,2.50
2023-01-05T04:05:59.802Z,2.35
2023-01-05T04:08:26.740Z,2.35
2023-01-05T04:10:54.257Z,2.63
2023-01-05T04:13:21.357Z,2.67
2023-01-05T04:15:48.388Z,2.50
2023-01-05T04:18:15.452Z,2.83
2023-01-05T04:20:42.664Z,2.10
2023-01-05T04:23:09.554Z,2.42
2023-01-05T04:25:36.478Z,2.30
2023-01-05T04:28:03.473Z,2.83
2023-01-05T04:30:30.350Z,2.22
2023-01-05T04:32:57.204Z,2.80
2023-01-05T04:35:24.095Z,2.75
2023-01-05T04:37:51.031Z,2.42
2023-01-05T04:40:17.894Z,2.47
2023-01-05T04:42:44.788Z,2.35
2023-01-05T04:45:12.012Z,3.03
2023-01-05T04:47:38.883Z,2.58
2023-01-05T04:50:06.384Z,2.50
2023-01-05T04:52:33.247Z,2.58
2023-01-05T04:55:00.392Z,2.22
2023-01-05T04:57:27.410Z,2.70
2023-01-05T04:59:54.413Z,2.17
2023-01-05T05:02:21.526Z,2.88
2023-01-05T05:04:48.563Z,2.42
2023-01-05T05:07:15.600Z,2.60
2023-01-05T05:09:42.545Z,3.08
2023-01-05T05:12:09.580Z,2.58
2023-01-05T05:14:36.628Z,2.45
2023-01-05T05:17:03.625Z,2.58
2023-01-05T05:19:30.605Z,2.50
2023-01-05T05:21:57.644Z,2.60
2023-01-05T05:24:24.683Z,2.13
2023-01-05T05:26:51.691Z,2.63
2023-01-05T05:29:18.671Z,3.00
2023-01-05T05:31:46.416Z,2.80
2023-01-05T05:34:13.349Z,2.20
2023-01-05T05:36:40.393Z,2.63
2023-01-05T05:39:07.342Z,2.63
2023-01-05T05:41:34.309Z,2.47
2023-01-05T05:44:02.729Z,2.90
2023-01-05T05:46:30.249Z,2.47
2023-01-05T05:48:58.265Z,2.67
2023-01-05T05:51:26.013Z,2.63
2023-01-05T05:53:53.236Z,2.85
2023-01-05T05:56:20.226Z,2.50
2023-01-05T05:58:47.100Z,2.63
2023-01-05T06:03:41.235Z,2.38
2023-01-05T06:06:08.548Z,2.60
2023-01-05T06:08:35.445Z,2.17
2023-01-05T06:11:02.346Z,3.03
2023-01-05T06:13:29.223Z,2.70
2023-01-05T06:15:56.158Z,3.00
2023-01-05T06:18:23.603Z,3.20
2023-01-05T06:20:51.535Z,2.83
2023-01-05T06:23:20.891Z,2.70
2023-01-05T06:25:47.745Z,3.25
2023-01-05T06:28:19.956Z,2.72
2023-01-05T06:30:47.624Z,2.55
2023-01-05T06:33:14.572Z,2.42
2023-01-05T06:35:41.484Z,3.00
2023-01-05T06:38:08.467Z,2.95
2023-01-05T06:40:35.343Z,2.92
2023-01-05T06:43:02.271Z,3.20
2023-01-05T06:45:29.187Z,2.60
2023-01-05T06:47:57.622Z,3.67
2023-01-05T06:50:24.512Z,2.70
2023-01-05T06:52:51.409Z,3.00
2023-01-05T06:55:18.384Z,2.40
2023-01-05T06:57:45.378Z,2.85
2023-01-05T07:00:13.046Z,2.83
2023-01-05T07:02:40.172Z,2.75
2023-01-05T07:05:08.157Z,3.25
2023-01-05T07:07:35.170Z,2.75
2023-01-05T07:10:02.620Z,3.10
2023-01-05T07:12:29.684Z,2.90
2023-01-05T07:14:57.871Z,3.28
2023-01-05T07:17:25.588Z,2.88
2023-01-05T07:19:52.630Z,2.67
2023-01-05T07:22:19.635Z,3.17
2023-01-05T07:24:46.611Z,2.75
2023-01-05T07:27:13.615Z,3.05
2023-01-05T07:29:40.563Z,3.50
2023-01-05T07:32:07.645Z,2.65
2023-01-05T07:34:34.653Z,2.63
2023-01-05T07:37:01.635Z,2.88
2023-01-05T07:39:28.549Z,3.53
2023-01-05T07:41:55.499Z,3.00
2023-01-05T07:44:22.451Z,2.70
2023-01-05T07:46:49.466Z,3.55
2023-01-05T07:49:16.522Z,2.85
2023-01-05T07:51:43.480Z,2.75
2023-01-05T07:54:10.443Z,2.78
2023-01-05T07:56:37.336Z,2.85
2023-01-05T07:59:04.493Z,2.95
2023-01-05T08:01:31.517Z,2.63
2023-01-05T08:03:58.601Z,2.88
2023-01-05T08:06:25.626Z,2.83
2023-01-05T08:08:52.593Z,3.15
2023-01-05T08:11:21.906Z,3.13
2023-01-05T08:14:02.651Z,2.90
2023-01-05T08:16:32.504Z,2.70
2023-01-05T08:19:00.127Z,2.90
2023-01-05T08:21:27.270Z,2.95
2023-01-05T08:23:54.383Z,2.20
2023-01-05T08:26:23.700Z,2.72
2023-01-05T08:28:51.346Z,2.78
2023-01-05T08:31:26.222Z,2.85
2023-01-05T08:33:58.422Z,2.80
2023-01-05T08:36:25.368Z,6.47
2023-01-05T08:38:53.854Z,9.75
2023-01-05T08:41:28.490Z,7.57
2023-01-05T08:43:57.547Z,6.75
2023-01-05T08:46:31.236Z,6.43
2023-01-05T08:49:00.371Z,5.80
2023-01-05T08:51:27.741Z,5.22
2023-01-05T08:53:54.685Z,4.70
2023-01-05T08:56:22.679Z,5.32
2023-01-05T08:58:49.660Z,4.60
2023-01-05T09:01:18.287Z,5.00
2023-01-05T09:03:45.774Z,4.30
2023-01-05T09:06:13.266Z,11.20
2023-01-05T09:08:42.017Z,11.02
2023-01-05T09:11:13.538Z,7.57
2023-01-05T09:13:41.478Z,7.05
2023-01-05T09:16:10.654Z,5.90
2023-01-05T09:18:39.135Z,6.18
2023-01-05T09:21:06.605Z,5.57
2023-01-05T09:23:34.093Z,5.70
2023-01-05T09:26:03.178Z,5.88
2023-01-05T09:28:30.230Z,4.55
2023-01-05T09:30:57.315Z,4.60
2023-01-05T09:33:25.109Z,4.82
2023-01-05T09:35:56.147Z,4.07
2023-01-05T09:38:24.264Z,4.45
2023-01-05T09:40:53.406Z,4.70
2023-01-05T09:43:29.090Z,4.00
2023-01-05T09:45:57.641Z,4.18
2023-01-05T09:48:25.792Z,4.55
2023-01-05T09:50:53.339Z,4.00
2023-01-05T09:55:58.510Z,4.43
2023-01-05T09:58:30.994Z,4.28
2023-01-05T10:01:14.471Z,4.00
2023-01-05T10:04:05.226Z,3.95
2023-01-05T10:06:39.728Z,4.53
2023-01-05T10:09:08.227Z,4.03
2023-01-05T10:12:20.971Z,4.05
2023-01-05T10:14:59.287Z,4.03
2023-01-05T10:17:41.108Z,3.90
2023-01-05T10:20:21.369Z,14.90
2023-01-05T10:23:15.116Z,18.87
2023-01-05T10:25:48.497Z,13.68
2023-01-05T10:28:48.675Z,10.02
2023-01-05T10:31:44.259Z,7.70
2023-01-05T10:34:22.538Z,6.70
2023-01-05T10:37:19.624Z,6.72
2023-01-05T10:40:03.954Z,6.95
2023-01-05T10:42:43.605Z,6.15
2023-01-05T10:45:13.689Z,5.82
2023-01-05T10:47:41.506Z,5.82
2023-01-05T10:53:18.093Z,5.60
2023-01-05T10:55:57.213Z,5.25
2023-01-05T10:58:29.826Z,4.93
2023-01-05T11:01:03.667Z,4.95
2023-01-05T11:04:23.823Z,4.65
2023-01-05T11:06:32.782Z,5.13
2023-01-05T11:09:18.869Z,5.00
2023-01-05T11:11:56.440Z,4.47
2023-01-05T11:14:24.412Z,4.55
2023-01-05T11:16:53.708Z,4.22
2023-01-05T11:19:31.518Z,4.00
2023-01-05T11:22:02.203Z,3.70
2023-01-05T11:24:37.445Z,3.92
2023-01-05T11:27:23.941Z,4.40
2023-01-05T11:30:25.604Z,3.70
2023-01-05T11:32:52.677Z,3.85
2023-01-05T11:35:30.815Z,3.25
2023-01-05T11:37:58.109Z,3.40
2023-01-05T11:40:31.545Z,3.42
2023-01-05T11:42:59.633Z,3.75
2023-01-05T11:45:37.820Z,3.90
2023-01-05T11:48:08.355Z,2.90
2023-01-05T11:50:56.895Z,3.20
2023-01-05T11:53:40.121Z,2.80
2023-01-05T11:56:21.741Z,3.60
2023-01-05T11:58:50.473Z,3.58
2023-01-05T12:01:44.715Z,3.33
2023-01-05T12:04:44.504Z,3.20
2023-01-05T12:10:22.440Z,3.50
2023-01-05T12:13:08.990Z,3.67
2023-01-05T12:15:42.011Z,3.45
2023-01-05T12:18:27.540Z,3.50
2023-01-05T12:21:04.469Z,2.97
2023-01-05T12:24:08.876Z,4.00
2023-01-05T12:26:41.782Z,3.63
2023-01-05T12:35:42.751Z,3.13
2023-01-05T12:38:17.349Z,3.38
2023-01-05T12:41:21.112Z,3.40
2023-01-05T12:44:26.010Z,3.80
2023-01-05T12:47:21.042Z,3.10
2023-01-05T12:49:52.902Z,3.00
2023-01-05T12:52:29.233Z,3.17
2023-01-05T12:55:27.549Z,3.00
2023-01-05T12:58:17.361Z,3.10
2023-01-05T13:00:46.493Z,2.78
2023-01-05T13:03:28.314Z,4.32
2023-01-05T13:06:05.083Z,12.40
2023-01-05T13:08:45.171Z,12.82
2023-01-05T13:11:50.322Z,12.25
2023-01-05T13:14:20.487Z,11.27
2023-01-05T13:16:56.048Z,10.10
2023-01-05T13:19:40.374Z,8.73
2023-01-05T13:22:28.897Z,8.95
2023-01-05T13:25:01.880Z,7.70
2023-01-05T13:27:29.809Z,6.43
2023-01-05T13:29:59.637Z,6.80
2023-01-05T13:33:00.755Z,5.32
2023-01-05T13:35:33.844Z,6.10
2023-01-05T13:38:35.442Z,5.47
2023-01-05T13:41:03.637Z,4.93
2023-01-05T13:43:49.685Z,4.97
2023-01-05T13:46:44.073Z,5.28
2023-01-05T13:49:38.968Z,5.13
2023-01-05T13:52:19.880Z,3.95
2023-01-05T13:55:00.568Z,4.13
2023-01-05T13:57:37.116Z,3.70
2023-01-05T14:00:25.138Z,3.38
2023-01-05T14:03:10.280Z,3.50
2023-01-05T14:05:55.548Z,3.30
2023-01-05T14:08:29.898Z,2.97
2023-01-05T14:11:23.393Z,3.00
2023-01-05T14:13:50.363Z,2.78
2023-01-05T14:16:36.111Z,2.97
2023-01-05T14:19:25.966Z,2.42
2023-01-05T14:21:59.883Z,2.65
2023-01-05T14:24:30.785Z,2.50
2023-01-05T14:27:15.013Z,2.97
2023-01-05T14:29:45.279Z,2.50
2023-01-05T14:32:27.356Z,2.47
2023-01-05T14:35:03.165Z,2.08
2023-01-05T14:37:36.635Z,2.65
2023-01-05T14:40:16.106Z,2.00
2023-01-05T14:42:47.313Z,2.08
2023-01-05T14:45:28.603Z,2.42
2023-01-05T14:47:57.934Z,2.20
2023-01-05T14:50:38.221Z,2.33
2023-01-05T14:53:20.723Z,1.88
2023-01-05T14:55:53.555Z,1.90
2023-01-05T14:58:40.704Z,2.03
2023-01-05T15:01:16.953Z,1.92
2023-01-05T15:04:05.615Z,1.90
2023-01-05T15:06:43.578Z,1.90
2023-01-05T15:09:52.057Z,1.95
2023-01-05T15:12:46.962Z,1.98
2023-01-05T15:15:47.466Z,2.30
2023-01-05T15:18:44.500Z,2.03
2023-01-05T15:21:16.435Z,2.08
2023-01-05T15:23:55.503Z,10.93
2023-01-05T15:26:33.959Z,11.48
2023-01-05T15:29:19.317Z,9.32
2023-01-05T15:31:55.225Z,8.57
2023-01-05T15:34:28.254Z,6.70
2023-01-05T15:37:15.539Z,6.35
2023-01-05T15:39:53.777Z,5.15
2023-01-05T15:42:25.319Z,4.80
2023-01-05T15:44:53.982Z,4.72
2023-01-05T15:47:23.975Z,4.25
2023-01-05T15:49:51.736Z,4.03
2023-01-05T15:52:36.237Z,3.42
2023-01-05T15:55:23.544Z,3.15
2023-01-05T15:58:03.926Z,2.97
2023-01-05T16:00:33.523Z,2.85
2023-01-05T16:03:01.043Z,2.72
2023-01-05T16:05:32.748Z,2.63
2023-01-05T16:08:11.564Z,4.80
2023-01-05T16:10:49.148Z,16.77
2023-01-05T16:13:33.678Z,14.90
2023-01-05T16:16:03.468Z,12.57
2023-01-05T16:18:37.645Z,11.32
2023-01-05T16:21:35.357Z,10.60
2023-01-05T16:24:20.474Z,10.07
2023-01-05T16:26:47.482Z,12.05
2023-01-05T16:29:38.862Z,17.88
2023-01-05T16:32:36.933Z,16.17
2023-01-05T16:35:31.758Z,31.90
2023-01-05T16:38:10.757Z,30.23
2023-01-05T16:40:41.794Z,35.55
2023-01-05T16:43:24.339Z,48.33
2023-01-05T16:45:57.567Z,62.78
2023-01-05T16:48:38.988Z,75.00
2023-01-05T16:51:10.580Z,90.15
2023-01-05T16:53:42.816Z,96.53
2023-01-05T16:56:41.049Z,101.00
2023-01-05T16:59:34.980Z,100.75
2023-01-05T17:02:02.224Z,98.22
2023-01-05T17:04:29.381Z,97.20
2023-01-05T17:06:58.001Z,96.32
2023-01-05T17:09:30.937Z,91.15
2023-01-05T17:11:58.419Z,91.63
2023-01-05T17:14:26.738Z,87.00
2023-01-05T17:16:54.512Z,82.85
2023-01-05T17:19:21.779Z,77.65
2023-01-05T17:21:56.527Z,73.60
2023-01-05T17:26:52.791Z,60.17
2023-01-05T17:29:28.094Z,54.50
2023-01-05T17:31:55.713Z,57.83
2023-01-05T17:34:23.320Z,52.35
2023-01-05T17:36:53.462Z,45.28
2023-01-05T17:39:22.125Z,47.30
2023-01-05T17:41:49.205Z,43.67
2023-01-05T17:44:16.756Z,41.58
2023-01-05T17:49:19.940Z,39.92
2023-01-05T17:51:47.407Z,35.80
2023-01-05T17:54:14.615Z,34.17
2023-01-05T17:56:41.519Z,33.88
2023-01-05T17:59:08.507Z,29.83
2023-01-05T18:01:35.564Z,33.05
2023-01-05T18:04:02.921Z,33.08
2023-01-05T18:06:29.809Z,36.88
2023-01-05T18:08:56.764Z,34.15
2023-01-05T18:11:23.744Z,32.33
2023-01-05T18:13:50.752Z,30.75
2023-01-05T18:16:17.760Z,27.85
2023-01-05T18:18:44.762Z,29.08
2023-01-05T18:23:38.934Z,25.85
2023-01-05T18:26:08.246Z,24.15
2023-01-05T18:28:36.046Z,23.08
2023-01-05T18:31:10.376Z,22.15
2023-01-05T18:33:37.282Z,19.90
2023-01-05T18:36:08.857Z,20.67
2023-01-05T18:38:37.567Z,20.92
2023-01-05T18:41:05.635Z,19.23
2023-01-05T18:43:33.873Z,17.70
2023-01-05T18:46:02.165Z,19.55
2023-01-05T18:48:29.372Z,17.58
2023-01-05T18:50:56.341Z,17.23
2023-01-05T18:53:23.569Z,15.57
2023-01-05T18:55:50.638Z,16.23
2023-01-05T18:58:17.923Z,15.57
2023-01-05T19:00:46.483Z,14.02
2023-01-05T19:03:13.775Z,14.63
2023-01-05T19:05:42.371Z,15.13
2023-01-05T19:08:10.672Z,14.30
2023-01-05T19:10:38.070Z,14.90
2023-01-05T19:13:05.463Z,14.15
2023-01-05T19:15:34.055Z,13.80
2023-01-05T19:18:01.309Z,14.83
2023-01-05T19:20:28.301Z,21.77
2023-01-05T19:22:55.264Z,22.90
2023-01-05T19:25:22.287Z,22.40
2023-01-05T19:27:49.237Z,20.48
2023-01-05T19:30:17.813Z,18.17
2023-01-05T19:32:44.802Z,20.00
2023-01-05T19:35:11.811Z,17.80
2023-01-05T19:37:39.215Z,17.50
2023-01-05T19:40:06.572Z,15.57
2023-01-05T19:42:33.476Z,14.77
2023-01-05T19:45:00.352Z,14.15
2023-01-05T19:47:27.297Z,13.68
2023-01-05T19:49:54.196Z,12.48
2023-01-05T19:52:21.455Z,11.45
2023-01-05T19:54:48.606Z,11.88
2023-01-05T19:57:15.571Z,11.88
2023-01-05T19:59:43.247Z,10.80
2023-01-05T20:02:10.598Z,9.82
2023-01-05T20:04:37.552Z,10.45
2023-01-05T20:07:07.232Z,9.65
2023-01-05T20:09:34.403Z,9.23
2023-01-05T20:12:13.791Z,9.93
2023-01-05T20:14:42.305Z,8.98
2023-01-05T20:17:10.823Z,8.88
2023-01-05T20:19:39.340Z,8.85
2023-01-05T20:22:08.052Z,8.73
2023-01-05T20:24:38.499Z,9.90
2023-01-05T20:27:09.588Z,10.20
2023-01-05T20:29:36.765Z,10.98
2023-01-05T20:32:06.889Z,11.07
2023-01-05T20:34:37.146Z,10.00
2023-01-05T20:37:07.941Z,10.00
2023-01-05T20:39:35.745Z,10.18
2023-01-05T20:42:05.633Z,9.57
2023-01-05T20:44:35.677Z,9.63
2023-01-05T20:47:03.769Z,8.60
2023-01-05T20:49:31.149Z,8.88
2023-01-05T20:51:58.493Z,8.68
2023-01-05T20:54:26.203Z,7.88
2023-01-05T20:56:53.221Z,8.13
2023-01-05T20:59:27.222Z,7.55
2023-01-05T21:01:54.736Z,7.63
2023-01-05T21:04:22.814Z,8.00
2023-01-05T21:06:59.456Z,8.23
2023-01-05T21:09:29.310Z,6.80
2023-01-05T21:11:57.056Z,7.40
2023-01-05T21:14:24.109Z,7.25
2023-01-05T21:16:52.933Z,7.25
2023-01-05T21:19:23.105Z,6.57
2023-01-05T21:21:53.086Z,7.20
2023-01-05T21:24:20.413Z,6.78
2023-01-05T21:26:47.510Z,6.50
2023-01-05T21:29:16.218Z,6.80
2023-01-05T21:31:43.750Z,7.18
2023-01-05T21:34:11.826Z,14.68
2023-01-05T21:36:41.726Z,15.25
2023-01-05T21:39:11.519Z,14.40
2023-01-05T21:41:58.041Z,13.93
2023-01-05T21:44:25.728Z,12.00
2023-01-05T21:46:52.681Z,10.73
2023-01-05T21:49:20.276Z,10.32
2023-01-05T21:52:06.483Z,10.05
2023-01-05T21:54:52.178Z,9.18
2023-01-05T21:57:19.213Z,7.68
2023-01-05T21:59:46.116Z,7.90
2023-01-05T22:02:14.679Z,7.22
2023-01-05T22:04:41.869Z,7.33
2023-01-05T22:07:08.754Z,7.47
2023-01-05T22:09:36.576Z,8.20
2023-01-05T22:12:07.309Z,7.25
2023-01-05T22:14:35.450Z,7.32
2023-01-05T22:17:02.446Z,6.70
2023-01-05T22:19:29.343Z,6.53
2023-01-05T22:21:56.265Z,6.15
2023-01-05T22:24:23.182Z,9.10
2023-01-05T22:26:50.044Z,9.15
2023-01-05T22:29:18.938Z,18.73
2023-01-05T22:31:45.976Z,15.73
2023-01-05T22:34:13.032Z,14.38
2023-01-05T22:36:40.034Z,12.65
2023-01-05T22:39:07.211Z,12.45
2023-01-05T22:41:34.170Z,11.40
2023-01-05T22:44:02.612Z,9.73
2023-01-05T22:46:30.732Z,8.85
2023-01-05T22:48:58.193Z,9.20
2023-01-05T22:51:29.177Z,8.10
2023-01-05T22:53:57.083Z,8.07
2023-01-05T22:56:25.625Z,11.20
2023-01-05T22:58:52.798Z,12.30
2023-01-05T23:01:22.849Z,12.65
2023-01-05T23:03:50.511Z,11.68
2023-01-05T23:06:18.291Z,10.52
2023-01-05T23:08:46.024Z,10.52
2023-01-05T23:11:14.292Z,9.80
2023-01-05T23:13:42.099Z,9.68
2023-01-05T23:16:09.812Z,8.90
2023-01-05T23:18:37.776Z,8.32
2023-01-05T23:21:06.806Z,8.60
2023-01-05T23:23:34.337Z,8.10
2023-01-05T23:26:01.830Z,7.72
2023-01-05T23:28:30.063Z,7.60
2023-01-05T23:30:58.294Z,7.40
2023-01-05T23:33:27.325Z,7.15
2023-01-05T23:35:55.032Z,7.45
2023-01-05T23:38:23.453Z,7.05
2023-01-05T23:40:53.275Z,7.07
2023-01-05T23:43:22.121Z,7.13
2023-01-05T23:45:49.644Z,6.70
2023-01-05T23:48:17.110Z,6.63
2023-01-05T23:50:48.111Z,6.85
2023-01-05T23:53:16.231Z,6.30
2023-01-05T23:55:43.326Z,6.25
2023-01-05T23:58:10.279Z,5.90
